KRAC/RAC METAR and TAF weather

Enter ICAO airport designator
Station Type Date Time Source
KRAC METAR 2021/04/18 02:53 UTC NOAA

KRAC 180253Z AUTO 00000KT 10SM CLR 04/M02 A2998 RMK AO2 SLP155 T00441017 52002


Station Type Date Time Source
KRAC Decoded METAR 2021/04/18 02:53 UTC NOAA

BATTEN INTERNATIONAL AIRPORT, WI, United States (KRAC) 42-46N 87-49W 203M
Apr 17, 2021 - 10:53 PM EDT / 2021.04.18 0253 UTC
Wind: Calm:0
Visibility: 10 mile(s):0
Sky conditions: clear
Temperature: 39.9 F (4.4 C)
Dew Point: 28.9 F (-1.7 C)
Relative Humidity: 64%
Pressure (altimeter): 29.98 in. Hg (1015 hPa)
Pressure tendency: 0.01 inches (0.2 hPa) higher than three hours ago
ob: KRAC 180253Z AUTO 00000KT 10SM CLR 04/M02 A2998 RMK AO2 SLP155 T00441017 52002
cycle: 3

Station Type Date Time Source
KRAC TAF UTC NOAA

Error!

Example: see airport list